sensor_id;sensor_type;location;lat;lon;timestamp;temperature;humidity
1359;DHT22;673;48.098;14.422;2023-09-19T00:02:06;15.80;99.90
1359;DHT22;673;48.098;14.422;2023-09-19T00:04:34;15.80;99.90
1359;DHT22;673;48.098;14.422;2023-09-19T00:07:05;15.80;99.90
1359;DHT22;673;48.098;14.422;2023-09-19T00:09:32;15.80;99.90
1359;DHT22;673;48.098;14.422;2023-09-19T00:12:04;15.90;99.90
1359;DHT22;673;48.098;14.422;2023-09-19T00:14:31;15.80;99.90
1359;DHT22;673;48.098;14.422;2023-09-19T00:17:00;15.80;99.90
1359;DHT22;673;48.098;14.422;2023-09-19T00:19:32;15.80;99.90
1359;DHT22;673;48.098;14.422;2023-09-19T00:21:59;15.80;99.90
1359;DHT22;673;48.098;14.422;2023-09-19T00:24:27;15.80;99.90
1359;DHT22;673;48.098;14.422;2023-09-19T00:26:54;15.80;99.90
1359;DHT22;673;48.098;14.422;2023-09-19T00:29:22;15.90;99.90
1359;DHT22;673;48.098;14.422;2023-09-19T00:31:49;16.00;99.90
1359;DHT22;673;48.098;14.422;2023-09-19T00:34:16;16.00;99.90
1359;DHT22;673;48.098;14.422;2023-09-19T00:36:45;15.90;99.90
1359;DHT22;673;48.098;14.422;2023-09-19T00:39:12;15.90;99.90
1359;DHT22;673;48.098;14.422;2023-09-19T00:41:39;15.90;99.90
1359;DHT22;673;48.098;14.422;2023-09-19T00:44:07;15.80;99.90
1359;DHT22;673;48.098;14.422;2023-09-19T00:46:36;15.80;99.90
1359;DHT22;673;48.098;14.422;2023-09-19T00:49:03;15.80;99.90
1359;DHT22;673;48.098;14.422;2023-09-19T00:51:30;15.80;99.90
1359;DHT22;673;48.098;14.422;2023-09-19T00:54:00;15.90;99.90
1359;DHT22;673;48.098;14.422;2023-09-19T00:56:28;15.90;99.90
1359;DHT22;673;48.098;14.422;2023-09-19T00:58:55;15.90;99.90
1359;DHT22;673;48.098;14.422;2023-09-19T01:01:23;15.80;99.90
1359;DHT22;673;48.098;14.422;2023-09-19T01:03:51;15.80;99.90
1359;DHT22;673;48.098;14.422;2023-09-19T01:06:18;15.70;99.90
1359;DHT22;673;48.098;14.422;2023-09-19T01:08:46;15.70;99.90
1359;DHT22;673;48.098;14.422;2023-09-19T01:11:20;15.70;99.90
1359;DHT22;673;48.098;14.422;2023-09-19T01:13:56;15.70;99.90
1359;DHT22;673;48.098;14.422;2023-09-19T01:16:32;15.70;99.90
1359;DHT22;673;48.098;14.422;2023-09-19T01:19:24;15.70;99.90
1359;DHT22;673;48.098;14.422;2023-09-19T01:21:57;15.80;99.90
1359;DHT22;673;48.098;14.422;2023-09-19T01:24:48;15.80;99.90
1359;DHT22;673;48.098;14.422;2023-09-19T01:27:36;15.80;99.90
1359;DHT22;673;48.098;14.422;2023-09-19T01:30:14;15.90;99.90
1359;DHT22;673;48.098;14.422;2023-09-19T01:32:42;15.80;99.90
1359;DHT22;673;48.098;14.422;2023-09-19T01:35:11;15.80;99.90
1359;DHT22;673;48.098;14.422;2023-09-19T01:37:39;15.80;99.90
1359;DHT22;673;48.098;14.422;2023-09-19T01:40:11;15.70;99.90
1359;DHT22;673;48.098;14.422;2023-09-19T01:42:45;15.70;99.90
1359;DHT22;673;48.098;14.422;2023-09-19T01:45:24;15.70;99.90
1359;DHT22;673;48.098;14.422;2023-09-19T01:47:54;15.70;99.90
1359;DHT22;673;48.098;14.422;2023-09-19T01:50:30;15.60;99.90
1359;DHT22;673;48.098;14.422;2023-09-19T01:53:02;15.60;99.90
1359;DHT22;673;48.098;14.422;2023-09-19T01:55:30;15.60;99.90
1359;DHT22;673;48.098;14.422;2023-09-19T01:58:08;15.60;99.90
1359;DHT22;673;48.098;14.422;2023-09-19T02:00:43;15.60;99.90
1359;DHT22;673;48.098;14.422;2023-09-19T02:03:11;15.50;99.90
1359;DHT22;673;48.098;14.422;2023-09-19T02:05:39;15.40;99.90
1359;DHT22;673;48.098;14.422;2023-09-19T02:08:06;15.40;99.90
1359;DHT22;673;48.098;14.422;2023-09-19T02:10:33;15.40;99.90
1359;DHT22;673;48.098;14.422;2023-09-19T02:13:01;15.40;99.90
1359;DHT22;673;48.098;14.422;2023-09-19T02:15:30;15.50;99.90
1359;DHT22;673;48.098;14.422;2023-09-19T02:17:59;15.50;99.90
1359;DHT22;673;48.098;14.422;2023-09-19T02:20:26;15.50;99.90
1359;DHT22;673;48.098;14.422;2023-09-19T02:22:53;15.60;99.90
1359;DHT22;673;48.098;14.422;2023-09-19T02:25:20;15.60;99.90
1359;DHT22;673;48.098;14.422;2023-09-19T02:27:47;15.50;99.90
1359;DHT22;673;48.098;14.422;2023-09-19T02:30:14;15.50;99.90
1359;DHT22;673;48.098;14.422;2023-09-19T02:32:41;15.40;99.90
1359;DHT22;673;48.098;14.422;2023-09-19T02:35:10;15.40;99.90
1359;DHT22;673;48.098;14.422;2023-09-19T02:37:38;15.50;99.90
1359;DHT22;673;48.098;14.422;2023-09-19T02:40:06;15.50;99.90
1359;DHT22;673;48.098;14.422;2023-09-19T02:42:44;15.60;99.90
1359;DHT22;673;48.098;14.422;2023-09-19T02:45:18;15.60;99.90
1359;DHT22;673;48.098;14.422;2023-09-19T02:47:49;15.60;99.90
1359;DHT22;673;48.098;14.422;2023-09-19T02:50:18;15.70;99.90
1359;DHT22;673;48.098;14.422;2023-09-19T02:52:46;15.60;99.90
1359;DHT22;673;48.098;14.422;2023-09-19T02:55:15;15.50;99.90
1359;DHT22;673;48.098;14.422;2023-09-19T02:57:45;15.40;99.90
1359;DHT22;673;48.098;14.422;2023-09-19T03:00:13;15.40;99.90
1359;DHT22;673;48.098;14.422;2023-09-19T03:02:41;15.30;99.90
1359;DHT22;673;48.098;14.422;2023-09-19T03:05:08;15.30;99.90
1359;DHT22;673;48.098;14.422;2023-09-19T03:07:38;15.30;99.90
1359;DHT22;673;48.098;14.422;2023-09-19T03:10:06;15.20;99.90
1359;DHT22;673;48.098;14.422;2023-09-19T03:12:34;15.20;99.90
1359;DHT22;673;48.098;14.422;2023-09-19T03:15:01;15.20;99.90
1359;DHT22;673;48.098;14.422;2023-09-19T03:17:30;15.20;99.90
1359;DHT22;673;48.098;14.422;2023-09-19T03:19:58;15.20;99.90
1359;DHT22;673;48.098;14.422;2023-09-19T03:22:26;15.10;99.90
1359;DHT22;673;48.098;14.422;2023-09-19T03:24:55;15.10;99.90
1359;DHT22;673;48.098;14.422;2023-09-19T03:27:22;15.00;99.90
1359;DHT22;673;48.098;14.422;2023-09-19T03:29:49;15.00;99.90
1359;DHT22;673;48.098;14.422;2023-09-19T03:32:16;15.00;99.90
1359;DHT22;673;48.098;14.422;2023-09-19T03:34:43;14.90;99.90
1359;DHT22;673;48.098;14.422;2023-09-19T03:37:10;15.00;99.90
1359;DHT22;673;48.098;14.422;2023-09-19T03:39:37;14.90;99.90
1359;DHT22;673;48.098;14.422;2023-09-19T03:42:06;14.90;99.90
1359;DHT22;673;48.098;14.422;2023-09-19T03:44:33;15.00;99.90
1359;DHT22;673;48.098;14.422;2023-09-19T03:47:00;14.90;99.90
1359;DHT22;673;48.098;14.422;2023-09-19T03:49:30;14.90;99.90
1359;DHT22;673;48.098;14.422;2023-09-19T03:51:57;14.90;99.90
1359;DHT22;673;48.098;14.422;2023-09-19T03:54:24;14.80;99.90
1359;DHT22;673;48.098;14.422;2023-09-19T03:56:52;14.70;99.90
1359;DHT22;673;48.098;14.422;2023-09-19T03:59:23;14.70;99.90
1359;DHT22;673;48.098;14.422;2023-09-19T04:01:50;14.70;99.90
1359;DHT22;673;48.098;14.422;2023-09-19T04:04:21;14.70;99.90
1359;DHT22;673;48.098;14.422;2023-09-19T04:06:50;14.70;99.90
1359;DHT22;673;48.098;14.422;2023-09-19T04:09:17;14.80;99.90
1359;DHT22;673;48.098;14.422;2023-09-19T04:11:44;14.80;99.90
1359;DHT22;673;48.098;14.422;2023-09-19T04:14:11;14.80;99.90
1359;DHT22;673;48.098;14.422;2023-09-19T04:16:39;14.90;99.90
1359;DHT22;673;48.098;14.422;2023-09-19T04:19:06;14.90;99.90
1359;DHT22;673;48.098;14.422;2023-09-19T04:21:33;15.00;99.90
1359;DHT22;673;48.098;14.422;2023-09-19T04:24:00;15.00;99.90
1359;DHT22;673;48.098;14.422;2023-09-19T04:26:28;14.90;99.90
1359;DHT22;673;48.098;14.422;2023-09-19T04:28:55;14.90;99.90
1359;DHT22;673;48.098;14.422;2023-09-19T04:31:22;14.80;99.90
1359;DHT22;673;48.098;14.422;2023-09-19T04:33:51;14.80;99.90
1359;DHT22;673;48.098;14.422;2023-09-19T04:36:18;14.80;99.90
1359;DHT22;673;48.098;14.422;2023-09-19T04:38:46;14.80;99.90
1359;DHT22;673;48.098;14.422;2023-09-19T04:41:13;14.70;99.90
1359;DHT22;673;48.098;14.422;2023-09-19T04:43:40;14.80;99.90
1359;DHT22;673;48.098;14.422;2023-09-19T04:46:07;14.80;99.90
1359;DHT22;673;48.098;14.422;2023-09-19T04:48:34;14.80;99.90
1359;DHT22;673;48.098;14.422;2023-09-19T04:51:04;14.80;99.90
1359;DHT22;673;48.098;14.422;2023-09-19T04:53:30;14.80;99.90
1359;DHT22;673;48.098;14.422;2023-09-19T04:55:57;14.90;99.90
1359;DHT22;673;48.098;14.422;2023-09-19T04:58:24;14.90;99.90
1359;DHT22;673;48.098;14.422;2023-09-19T05:00:51;14.90;99.90
1359;DHT22;673;48.098;14.422;2023-09-19T05:03:18;14.90;99.90
1359;DHT22;673;48.098;14.422;2023-09-19T05:05:45;14.90;99.90
1359;DHT22;673;48.098;14.422;2023-09-19T05:08:14;14.90;99.90
1359;DHT22;673;48.098;14.422;2023-09-19T05:10:41;14.90;99.90
1359;DHT22;673;48.098;14.422;2023-09-19T05:13:08;14.90;99.90
1359;DHT22;673;48.098;14.422;2023-09-19T05:15:35;15.00;99.90
1359;DHT22;673;48.098;14.422;2023-09-19T05:18:02;15.10;99.90
1359;DHT22;673;48.098;14.422;2023-09-19T05:20:29;15.10;99.90
1359;DHT22;673;48.098;14.422;2023-09-19T05:23:01;15.20;99.90
1359;DHT22;673;48.098;14.422;2023-09-19T05:25:32;15.20;99.90
1359;DHT22;673;48.098;14.422;2023-09-19T05:28:03;15.20;99.90
1359;DHT22;673;48.098;14.422;2023-09-19T05:30:31;15.30;99.90
1359;DHT22;673;48.098;14.422;2023-09-19T05:32:59;15.40;99.90
1359;DHT22;673;48.098;14.422;2023-09-19T05:35:26;15.40;99.90
1359;DHT22;673;48.098;14.422;2023-09-19T05:37:53;15.40;99.90
1359;DHT22;673;48.098;14.422;2023-09-19T05:40:21;15.50;99.90
1359;DHT22;673;48.098;14.422;2023-09-19T05:42:50;15.50;99.90
1359;DHT22;673;48.098;14.422;2023-09-19T05:45:17;15.60;99.90
1359;DHT22;673;48.098;14.422;2023-09-19T05:47:48;15.60;99.90
1359;DHT22;673;48.098;14.422;2023-09-19T05:50:15;15.60;99.90
1359;DHT22;673;48.098;14.422;2023-09-19T05:52:50;15.70;99.90
1359;DHT22;673;48.098;14.422;2023-09-19T05:55:18;15.80;99.90
1359;DHT22;673;48.098;14.422;2023-09-19T05:57:50;15.90;99.90
1359;DHT22;673;48.098;14.422;2023-09-19T06:00:18;15.90;99.90
1359;DHT22;673;48.098;14.422;2023-09-19T06:02:50;15.90;99.90
1359;DHT22;673;48.098;14.422;2023-09-19T06:05:17;15.90;99.90
1359;DHT22;673;48.098;14.422;2023-09-19T06:07:45;15.80;99.90
1359;DHT22;673;48.098;14.422;2023-09-19T06:10:12;15.80;99.90
1359;DHT22;673;48.098;14.422;2023-09-19T06:12:40;15.80;99.90
1359;DHT22;673;48.098;14.422;2023-09-19T06:15:11;15.90;99.90
1359;DHT22;673;48.098;14.422;2023-09-19T06:17:41;16.00;99.90
1359;DHT22;673;48.098;14.422;2023-09-19T06:20:08;16.10;99.90
1359;DHT22;673;48.098;14.422;2023-09-19T06:22:39;16.00;99.90
1359;DHT22;673;48.098;14.422;2023-09-19T06:25:07;16.00;99.90
1359;DHT22;673;48.098;14.422;2023-09-19T06:27:37;16.00;99.90
1359;DHT22;673;48.098;14.422;2023-09-19T06:30:06;16.10;99.90
1359;DHT22;673;48.098;14.422;2023-09-19T06:32:35;16.10;99.90
1359;DHT22;673;48.098;14.422;2023-09-19T06:35:03;16.10;99.90
1359;DHT22;673;48.098;14.422;2023-09-19T06:37:33;16.20;99.90
1359;DHT22;673;48.098;14.422;2023-09-19T06:40:00;16.20;99.90
1359;DHT22;673;48.098;14.422;2023-09-19T06:42:27;16.30;99.90
1359;DHT22;673;48.098;14.422;2023-09-19T06:44:54;16.30;99.90
1359;DHT22;673;48.098;14.422;2023-09-19T06:47:21;16.40;99.90
1359;DHT22;673;48.098;14.422;2023-09-19T06:49:52;16.50;99.90
1359;DHT22;673;48.098;14.422;2023-09-19T06:52:19;16.50;99.90
1359;DHT22;673;48.098;14.422;2023-09-19T06:54:46;16.60;99.90
1359;DHT22;673;48.098;14.422;2023-09-19T06:57:15;16.60;99.90
1359;DHT22;673;48.098;14.422;2023-09-19T06:59:42;16.50;99.90
1359;DHT22;673;48.098;14.422;2023-09-19T07:02:10;16.50;99.90
1359;DHT22;673;48.098;14.422;2023-09-19T07:04:37;16.50;99.90
1359;DHT22;673;48.098;14.422;2023-09-19T07:07:05;16.40;99.90
1359;DHT22;673;48.098;14.422;2023-09-19T07:09:33;16.50;99.90
1359;DHT22;673;48.098;14.422;2023-09-19T07:12:00;16.70;99.90
1359;DHT22;673;48.098;14.422;2023-09-19T07:14:26;16.80;99.90
1359;DHT22;673;48.098;14.422;2023-09-19T07:16:55;17.00;99.90
1359;DHT22;673;48.098;14.422;2023-09-19T07:19:25;17.30;99.90
1359;DHT22;673;48.098;14.422;2023-09-19T07:21:53;17.50;99.90
1359;DHT22;673;48.098;14.422;2023-09-19T07:24:22;17.70;99.90
1359;DHT22;673;48.098;14.422;2023-09-19T07:26:49;17.90;99.90
1359;DHT22;673;48.098;14.422;2023-09-19T07:29:16;18.00;99.90
1359;DHT22;673;48.098;14.422;2023-09-19T07:31:43;17.90;99.90
1359;DHT22;673;48.098;14.422;2023-09-19T07:34:10;17.80;99.90
1359;DHT22;673;48.098;14.422;2023-09-19T07:36:37;17.70;99.90
1359;DHT22;673;48.098;14.422;2023-09-19T07:39:06;17.70;99.90
1359;DHT22;673;48.098;14.422;2023-09-19T07:41:34;17.90;99.90
1359;DHT22;673;48.098;14.422;2023-09-19T07:44:02;18.10;99.90
1359;DHT22;673;48.098;14.422;2023-09-19T07:46:29;18.20;99.90
1359;DHT22;673;48.098;14.422;2023-09-19T07:48:57;18.20;99.90
1359;DHT22;673;48.098;14.422;2023-09-19T07:51:23;18.40;99.90
1359;DHT22;673;48.098;14.422;2023-09-19T07:53:50;18.60;99.90
1359;DHT22;673;48.098;14.422;2023-09-19T07:56:18;18.60;99.90
1359;DHT22;673;48.098;14.422;2023-09-19T07:58:47;18.70;99.90
1359;DHT22;673;48.098;14.422;2023-09-19T08:01:14;18.60;99.90
1359;DHT22;673;48.098;14.422;2023-09-19T08:03:41;18.50;99.90
1359;DHT22;673;48.098;14.422;2023-09-19T08:06:10;18.50;99.90
1359;DHT22;673;48.098;14.422;2023-09-19T08:08:37;18.40;99.90
1359;DHT22;673;48.098;14.422;2023-09-19T08:11:04;18.40;99.90
1359;DHT22;673;48.098;14.422;2023-09-19T08:13:37;18.30;99.90
1359;DHT22;673;48.098;14.422;2023-09-19T08:16:08;18.10;99.90
1359;DHT22;673;48.098;14.422;2023-09-19T08:18:35;18.10;99.90
1359;DHT22;673;48.098;14.422;2023-09-19T08:21:02;18.10;99.90
1359;DHT22;673;48.098;14.422;2023-09-19T08:23:29;18.00;99.90
1359;DHT22;673;48.098;14.422;2023-09-19T08:25:58;18.10;99.90
1359;DHT22;673;48.098;14.422;2023-09-19T08:28:28;18.20;99.90
1359;DHT22;673;48.098;14.422;2023-09-19T08:30:55;18.30;99.90
1359;DHT22;673;48.098;14.422;2023-09-19T08:33:25;18.30;99.90
1359;DHT22;673;48.098;14.422;2023-09-19T08:35:52;18.50;99.90
1359;DHT22;673;48.098;14.422;2023-09-19T08:38:19;18.60;99.90
1359;DHT22;673;48.098;14.422;2023-09-19T08:40:46;18.60;99.90
1359;DHT22;673;48.098;14.422;2023-09-19T08:43:13;18.60;99.90
1359;DHT22;673;48.098;14.422;2023-09-19T08:45:40;18.60;99.90
1359;DHT22;673;48.098;14.422;2023-09-19T08:48:28;18.80;99.90
1359;DHT22;673;48.098;14.422;2023-09-19T08:50:58;18.90;99.90
1359;DHT22;673;48.098;14.422;2023-09-19T08:53:36;19.00;99.90
1359;DHT22;673;48.098;14.422;2023-09-19T08:56:10;19.00;99.90
1359;DHT22;673;48.098;14.422;2023-09-19T08:58:44;18.80;99.90
1359;DHT22;673;48.098;14.422;2023-09-19T09:01:15;18.70;99.90
1359;DHT22;673;48.098;14.422;2023-09-19T09:03:45;18.50;99.90
1359;DHT22;673;48.098;14.422;2023-09-19T09:06:14;18.50;99.90
1359;DHT22;673;48.098;14.422;2023-09-19T09:08:42;18.50;99.90
1359;DHT22;673;48.098;14.422;2023-09-19T09:11:11;18.60;99.90
1359;DHT22;673;48.098;14.422;2023-09-19T09:13:38;18.70;99.90
1359;DHT22;673;48.098;14.422;2023-09-19T09:16:07;19.00;99.90
1359;DHT22;673;48.098;14.422;2023-09-19T09:18:34;19.30;99.90
1359;DHT22;673;48.098;14.422;2023-09-19T09:21:02;19.40;99.90
1359;DHT22;673;48.098;14.422;2023-09-19T09:23:30;19.50;99.90
1359;DHT22;673;48.098;14.422;2023-09-19T09:25:59;19.60;99.90
1359;DHT22;673;48.098;14.422;2023-09-19T09:28:30;19.70;99.90
1359;DHT22;673;48.098;14.422;2023-09-19T09:30:59;19.80;99.90
1359;DHT22;673;48.098;14.422;2023-09-19T09:33:28;19.80;99.90
1359;DHT22;673;48.098;14.422;2023-09-19T09:35:58;19.70;99.90
1359;DHT22;673;48.098;14.422;2023-09-19T09:38:28;19.60;99.90
1359;DHT22;673;48.098;14.422;2023-09-19T09:40:59;19.50;99.90
1359;DHT22;673;48.098;14.422;2023-09-19T09:43:33;19.50;99.90
1359;DHT22;673;48.098;14.422;2023-09-19T09:46:12;19.50;99.90
1359;DHT22;673;48.098;14.422;2023-09-19T09:48:57;19.70;99.90
1359;DHT22;673;48.098;14.422;2023-09-19T09:51:37;19.90;99.90
1359;DHT22;673;48.098;14.422;2023-09-19T09:54:14;19.90;99.90
1359;DHT22;673;48.098;14.422;2023-09-19T09:56:54;20.00;99.90
1359;DHT22;673;48.098;14.422;2023-09-19T09:59:44;20.00;99.90
1359;DHT22;673;48.098;14.422;2023-09-19T10:02:13;19.80;99.90
1359;DHT22;673;48.098;14.422;2023-09-19T10:04:50;19.50;99.90
1359;DHT22;673;48.098;14.422;2023-09-19T10:07:35;19.30;99.90
1359;DHT22;673;48.098;14.422;2023-09-19T10:10:09;19.00;99.90
1359;DHT22;673;48.098;14.422;2023-09-19T10:12:44;19.00;99.90
1359;DHT22;673;48.098;14.422;2023-09-19T10:15:15;19.00;99.90
1359;DHT22;673;48.098;14.422;2023-09-19T10:17:43;19.00;99.90
1359;DHT22;673;48.098;14.422;2023-09-19T10:20:13;19.10;99.90
1359;DHT22;673;48.098;14.422;2023-09-19T10:22:59;19.10;99.90
1359;DHT22;673;48.098;14.422;2023-09-19T10:25:28;19.00;99.90
1359;DHT22;673;48.098;14.422;2023-09-19T10:27:57;19.00;99.90
1359;DHT22;673;48.098;14.422;2023-09-19T10:30:29;19.00;99.90
1359;DHT22;673;48.098;14.422;2023-09-19T10:33:01;19.10;99.90
1359;DHT22;673;48.098;14.422;2023-09-19T10:35:28;19.30;99.90
1359;DHT22;673;48.098;14.422;2023-09-19T10:37:59;19.50;99.90
1359;DHT22;673;48.098;14.422;2023-09-19T10:40:30;19.50;99.90
1359;DHT22;673;48.098;14.422;2023-09-19T10:43:01;19.70;99.90
1359;DHT22;673;48.098;14.422;2023-09-19T10:45:31;19.70;99.90
1359;DHT22;673;48.098;14.422;2023-09-19T10:47:59;19.80;99.90
1359;DHT22;673;48.098;14.422;2023-09-19T10:50:29;20.30;99.90
1359;DHT22;673;48.098;14.422;2023-09-19T10:53:01;20.90;99.90
1359;DHT22;673;48.098;14.422;2023-09-19T10:55:33;21.10;99.90
1359;DHT22;673;48.098;14.422;2023-09-19T10:58:02;21.00;99.90
1359;DHT22;673;48.098;14.422;2023-09-19T11:00:51;20.80;99.90
1359;DHT22;673;48.098;14.422;2023-09-19T11:03:20;20.70;99.90
1359;DHT22;673;48.098;14.422;2023-09-19T11:06:07;20.80;99.90
1359;DHT22;673;48.098;14.422;2023-09-19T11:08:56;21.00;99.90
1359;DHT22;673;48.098;14.422;2023-09-19T11:11:46;21.30;99.90
1359;DHT22;673;48.098;14.422;2023-09-19T11:14:29;21.50;99.90
1359;DHT22;673;48.098;14.422;2023-09-19T11:20:23;21.40;99.90
1359;DHT22;673;48.098;14.422;2023-09-19T11:23:19;21.20;99.90
1359;DHT22;673;48.098;14.422;2023-09-19T11:25:50;21.10;99.90
1359;DHT22;673;48.098;14.422;2023-09-19T11:28:33;20.80;99.90
1359;DHT22;673;48.098;14.422;2023-09-19T11:34:44;20.30;99.90
1359;DHT22;673;48.098;14.422;2023-09-19T11:40:28;20.10;99.90
1359;DHT22;673;48.098;14.422;2023-09-19T11:42:56;20.10;99.90
1359;DHT22;673;48.098;14.422;2023-09-19T11:48:29;20.60;99.90
1359;DHT22;673;48.098;14.422;2023-09-19T11:50:58;20.70;99.90
1359;DHT22;673;48.098;14.422;2023-09-19T11:53:31;20.60;99.90
1359;DHT22;673;48.098;14.422;2023-09-19T11:56:02;20.40;99.90
1359;DHT22;673;48.098;14.422;2023-09-19T11:58:37;20.50;99.90
1359;DHT22;673;48.098;14.422;2023-09-19T12:01:05;20.60;99.90
1359;DHT22;673;48.098;14.422;2023-09-19T12:03:42;21.00;99.90
1359;DHT22;673;48.098;14.422;2023-09-19T12:06:14;21.00;99.90
1359;DHT22;673;48.098;14.422;2023-09-19T12:08:42;21.50;99.90
1359;DHT22;673;48.098;14.422;2023-09-19T12:11:13;21.70;99.90
1359;DHT22;673;48.098;14.422;2023-09-19T12:13:42;21.80;99.90
1359;DHT22;673;48.098;14.422;2023-09-19T12:16:14;22.10;99.90
1359;DHT22;673;48.098;14.422;2023-09-19T12:18:44;22.00;99.90
1359;DHT22;673;48.098;14.422;2023-09-19T12:21:27;21.60;99.90
1359;DHT22;673;48.098;14.422;2023-09-19T12:24:11;20.80;99.90
1359;DHT22;673;48.098;14.422;2023-09-19T12:26:43;20.60;99.90
1359;DHT22;673;48.098;14.422;2023-09-19T12:29:16;20.30;99.90
1359;DHT22;673;48.098;14.422;2023-09-19T12:31:49;20.10;99.90
1359;DHT22;673;48.098;14.422;2023-09-19T12:34:25;20.00;99.90
1359;DHT22;673;48.098;14.422;2023-09-19T12:37:07;19.90;99.90
1359;DHT22;673;48.098;14.422;2023-09-19T12:39:43;19.70;99.90
1359;DHT22;673;48.098;14.422;2023-09-19T12:42:15;19.50;99.90
1359;DHT22;673;48.098;14.422;2023-09-19T12:44:44;19.30;99.90
1359;DHT22;673;48.098;14.422;2023-09-19T12:47:14;19.20;99.90
1359;DHT22;673;48.098;14.422;2023-09-19T12:50:12;19.20;99.90
1359;DHT22;673;48.098;14.422;2023-09-19T12:52:43;19.40;99.90
1359;DHT22;673;48.098;14.422;2023-09-19T12:55:21;19.50;99.90
1359;DHT22;673;48.098;14.422;2023-09-19T12:58:12;19.80;99.90
1359;DHT22;673;48.098;14.422;2023-09-19T13:00:42;20.00;99.90
1359;DHT22;673;48.098;14.422;2023-09-19T13:03:18;20.40;99.90
1359;DHT22;673;48.098;14.422;2023-09-19T13:05:51;20.80;99.90
1359;DHT22;673;48.098;14.422;2023-09-19T13:08:25;21.60;99.90
1359;DHT22;673;48.098;14.422;2023-09-19T13:11:13;21.70;99.90
1359;DHT22;673;48.098;14.422;2023-09-19T13:13:44;21.80;99.90
1359;DHT22;673;48.098;14.422;2023-09-19T13:16:14;21.90;99.90
1359;DHT22;673;48.098;14.422;2023-09-19T13:18:47;21.70;99.90
1359;DHT22;673;48.098;14.422;2023-09-19T13:21:29;21.50;99.90
1359;DHT22;673;48.098;14.422;2023-09-19T13:24:19;21.10;99.90
1359;DHT22;673;48.098;14.422;2023-09-19T13:26:47;21.20;99.90
1359;DHT22;673;48.098;14.422;2023-09-19T13:29:15;21.30;99.90
1359;DHT22;673;48.098;14.422;2023-09-19T13:31:47;21.50;99.90
1359;DHT22;673;48.098;14.422;2023-09-19T13:34:15;21.50;99.90
1359;DHT22;673;48.098;14.422;2023-09-19T13:36:48;21.30;99.90
1359;DHT22;673;48.098;14.422;2023-09-19T13:39:16;21.40;99.90
1359;DHT22;673;48.098;14.422;2023-09-19T13:41:44;21.40;99.90
1359;DHT22;673;48.098;14.422;2023-09-19T13:44:13;21.60;99.90
1359;DHT22;673;48.098;14.422;2023-09-19T13:46:43;21.80;99.90
1359;DHT22;673;48.098;14.422;2023-09-19T13:49:12;21.80;99.90
1359;DHT22;673;48.098;14.422;2023-09-19T13:51:40;22.00;99.90
1359;DHT22;673;48.098;14.422;2023-09-19T13:54:12;22.00;99.90
1359;DHT22;673;48.098;14.422;2023-09-19T13:56:40;22.10;99.90
1359;DHT22;673;48.098;14.422;2023-09-19T13:59:11;22.20;99.90
1359;DHT22;673;48.098;14.422;2023-09-19T14:01:42;22.20;99.90
1359;DHT22;673;48.098;14.422;2023-09-19T14:04:09;22.20;99.90
1359;DHT22;673;48.098;14.422;2023-09-19T14:06:41;22.10;99.90
1359;DHT22;673;48.098;14.422;2023-09-19T14:09:14;21.90;99.90
1359;DHT22;673;48.098;14.422;2023-09-19T14:11:45;21.70;99.90
1359;DHT22;673;48.098;14.422;2023-09-19T14:14:16;21.10;99.90
1359;DHT22;673;48.098;14.422;2023-09-19T14:16:44;19.70;99.90
1359;DHT22;673;48.098;14.422;2023-09-19T14:19:15;19.00;99.90
1359;DHT22;673;48.098;14.422;2023-09-19T14:21:43;18.50;99.90
1359;DHT22;673;48.098;14.422;2023-09-19T14:24:10;18.60;99.90
1359;DHT22;673;48.098;14.422;2023-09-19T14:26:40;18.60;99.90
1359;DHT22;673;48.098;14.422;2023-09-19T14:29:07;18.60;99.90
1359;DHT22;673;48.098;14.422;2023-09-19T14:31:37;18.50;99.90
1359;DHT22;673;48.098;14.422;2023-09-19T14:34:06;18.60;99.90
1359;DHT22;673;48.098;14.422;2023-09-19T14:36:35;18.70;99.90
1359;DHT22;673;48.098;14.422;2023-09-19T14:39:04;18.90;99.90
1359;DHT22;673;48.098;14.422;2023-09-19T14:41:31;18.90;99.90
1359;DHT22;673;48.098;14.422;2023-09-19T14:44:01;19.00;99.90
1359;DHT22;673;48.098;14.422;2023-09-19T14:46:28;19.00;99.90
1359;DHT22;673;48.098;14.422;2023-09-19T14:48:56;18.90;99.90
1359;DHT22;673;48.098;14.422;2023-09-19T14:51:25;19.10;99.90
1359;DHT22;673;48.098;14.422;2023-09-19T14:53:53;18.90;99.90
1359;DHT22;673;48.098;14.422;2023-09-19T14:56:20;18.80;99.90
1359;DHT22;673;48.098;14.422;2023-09-19T14:58:49;18.70;99.90
1359;DHT22;673;48.098;14.422;2023-09-19T15:01:17;18.70;99.90
1359;DHT22;673;48.098;14.422;2023-09-19T15:03:45;18.80;99.90
1359;DHT22;673;48.098;14.422;2023-09-19T15:06:14;18.80;99.90
1359;DHT22;673;48.098;14.422;2023-09-19T15:08:43;18.80;99.90
1359;DHT22;673;48.098;14.422;2023-09-19T15:11:13;18.80;99.90
1359;DHT22;673;48.098;14.422;2023-09-19T15:13:42;18.80;99.90
1359;DHT22;673;48.098;14.422;2023-09-19T15:16:10;18.50;99.90
1359;DHT22;673;48.098;14.422;2023-09-19T15:18:40;18.50;99.90
1359;DHT22;673;48.098;14.422;2023-09-19T15:21:08;18.40;99.90
1359;DHT22;673;48.098;14.422;2023-09-19T15:23:36;18.40;99.90
1359;DHT22;673;48.098;14.422;2023-09-19T15:26:04;18.50;99.90
1359;DHT22;673;48.098;14.422;2023-09-19T15:28:32;18.60;99.90
1359;DHT22;673;48.098;14.422;2023-09-19T15:31:00;18.80;99.90
1359;DHT22;673;48.098;14.422;2023-09-19T15:33:27;19.00;99.90
1359;DHT22;673;48.098;14.422;2023-09-19T15:36:04;19.20;99.90
1359;DHT22;673;48.098;14.422;2023-09-19T15:38:50;19.30;99.90
1359;DHT22;673;48.098;14.422;2023-09-19T15:41:19;19.50;99.90
1359;DHT22;673;48.098;14.422;2023-09-19T15:43:47;19.40;99.90
1359;DHT22;673;48.098;14.422;2023-09-19T15:46:14;19.40;99.90
1359;DHT22;673;48.098;14.422;2023-09-19T15:48:41;19.40;99.90
1359;DHT22;673;48.098;14.422;2023-09-19T15:51:11;19.50;99.90
1359;DHT22;673;48.098;14.422;2023-09-19T15:53:42;19.60;99.90
1359;DHT22;673;48.098;14.422;2023-09-19T15:56:11;19.80;99.90
1359;DHT22;673;48.098;14.422;2023-09-19T15:58:39;19.50;99.90
1359;DHT22;673;48.098;14.422;2023-09-19T16:01:07;19.80;99.90
1359;DHT22;673;48.098;14.422;2023-09-19T16:03:34;19.80;99.90
1359;DHT22;673;48.098;14.422;2023-09-19T16:06:20;19.60;99.90
1359;DHT22;673;48.098;14.422;2023-09-19T16:08:50;19.10;99.90
1359;DHT22;673;48.098;14.422;2023-09-19T16:11:21;18.90;99.90
1359;DHT22;673;48.098;14.422;2023-09-19T16:13:49;18.70;99.90
1359;DHT22;673;48.098;14.422;2023-09-19T16:16:28;18.60;99.90
1359;DHT22;673;48.098;14.422;2023-09-19T16:18:59;18.40;99.90
1359;DHT22;673;48.098;14.422;2023-09-19T16:21:28;18.20;99.90
1359;DHT22;673;48.098;14.422;2023-09-19T16:23:56;18.20;99.90
1359;DHT22;673;48.098;14.422;2023-09-19T16:26:24;18.20;99.90
1359;DHT22;673;48.098;14.422;2023-09-19T16:28:52;18.20;99.90
1359;DHT22;673;48.098;14.422;2023-09-19T16:31:20;18.20;99.90
1359;DHT22;673;48.098;14.422;2023-09-19T16:33:47;18.10;99.90
1359;DHT22;673;48.098;14.422;2023-09-19T16:36:16;18.00;99.90